createdAt,value
2018-10-02T13:15:12.888Z,997.81
2018-10-02T13:16:12.868Z,997.82
2018-10-02T13:17:12.837Z,997.86
2018-10-02T13:18:12.805Z,997.85
2018-10-02T13:19:12.815Z,997.86
2018-10-02T13:20:12.788Z,997.92
2018-10-02T13:21:12.762Z,997.89
2018-10-02T13:22:12.760Z,997.81
2018-10-02T13:23:12.756Z,997.79
2018-10-02T13:24:12.733Z,997.78
2018-10-02T13:25:12.769Z,997.71
2018-10-02T13:26:12.708Z,997.71
2018-10-02T13:27:12.703Z,997.71
2018-10-02T13:28:12.689Z,997.67
2018-10-02T13:29:12.676Z,997.71
2018-10-02T13:30:12.856Z,997.71
2018-10-02T13:31:12.676Z,997.77
2018-10-02T13:32:12.700Z,997.75
2018-10-02T13:33:12.653Z,997.72
2018-10-02T13:34:12.629Z,997.67
2018-10-02T13:35:12.639Z,997.70
2018-10-02T13:36:12.966Z,997.68
2018-10-02T13:37:12.662Z,997.68
2018-10-02T13:38:12.724Z,997.69
2018-10-02T13:39:12.570Z,997.64
2018-10-02T13:40:12.571Z,997.62
2018-10-02T13:41:13.224Z,997.61
2018-10-02T13:42:12.677Z,997.64
2018-10-02T13:43:12.572Z,997.69
2018-10-02T13:44:13.471Z,997.62
2018-10-02T13:45:12.700Z,997.70
2018-10-02T13:46:12.675Z,997.69
2018-10-02T13:47:12.675Z,997.67
2018-10-02T13:48:12.850Z,997.68
2018-10-02T13:49:12.619Z,997.66
2018-10-02T13:50:12.623Z,997.60
2018-10-02T13:51:12.878Z,997.66
2018-10-02T13:52:13.526Z,997.57
2018-10-02T13:53:12.960Z,997.66
2018-10-02T13:54:15.571Z,997.67
2018-10-02T13:55:12.862Z,997.66
2018-10-02T13:56:12.400Z,997.64
2018-10-02T13:57:13.840Z,997.69
2018-10-02T13:58:13.335Z,997.74
2018-10-02T13:59:12.984Z,997.73
2018-10-02T14:00:13.011Z,997.74
2018-10-02T14:01:12.608Z,997.74
2018-10-02T14:02:12.549Z,997.78
2018-10-02T14:03:12.659Z,997.73
2018-10-02T14:04:12.407Z,997.81
2018-10-02T14:05:12.446Z,997.79
2018-10-02T14:06:12.417Z,997.79
2018-10-02T14:07:12.331Z,997.77
2018-10-02T14:08:12.409Z,997.80
2018-10-02T14:09:12.257Z,997.78
2018-10-02T14:10:12.544Z,997.80
2018-10-02T14:11:12.255Z,997.75
2018-10-02T14:12:12.420Z,997.75
2018-10-02T14:13:12.489Z,997.73
2018-10-02T14:14:12.673Z,997.70
2018-10-02T14:15:12.246Z,997.72
2018-10-02T14:16:12.250Z,997.64
2018-10-02T14:17:18.810Z,997.64
2018-10-02T14:18:12.212Z,997.71
2018-10-02T14:19:12.599Z,997.71
2018-10-02T14:20:12.226Z,997.66
2018-10-02T14:21:12.229Z,997.63
2018-10-02T14:22:12.295Z,997.67
2018-10-02T14:23:12.470Z,997.67
2018-10-02T14:24:12.253Z,997.67
2018-10-02T14:25:12.414Z,997.66
2018-10-02T14:26:12.176Z,997.75
2018-10-02T14:27:12.238Z,997.77
2018-10-02T14:28:12.506Z,997.74
2018-10-02T14:29:12.166Z,997.76
2018-10-02T14:30:12.129Z,997.73
2018-10-02T14:31:12.922Z,997.78
2018-10-02T14:32:12.278Z,997.78
2018-10-02T14:33:12.422Z,997.80
2018-10-02T14:34:12.720Z,997.78
2018-10-02T14:35:12.155Z,997.85
2018-10-02T14:36:12.113Z,997.77
2018-10-02T14:37:11.966Z,997.77
2018-10-02T14:38:11.975Z,997.78
2018-10-02T14:39:12.099Z,997.82
2018-10-02T14:40:12.855Z,997.79
2018-10-02T14:41:11.964Z,997.89
2018-10-02T14:42:12.052Z,997.78
2018-10-02T14:43:12.852Z,997.79
2018-10-02T14:44:12.141Z,997.78
2018-10-02T14:45:11.880Z,997.80
2018-10-02T14:46:12.666Z,997.77
2018-10-02T14:47:12.207Z,997.71
2018-10-02T14:48:11.847Z,997.76
2018-10-02T14:49:11.812Z,997.69
2018-10-02T14:50:11.799Z,997.68
2018-10-02T14:51:11.830Z,997.65
2018-10-02T14:52:11.777Z,997.70
2018-10-02T14:53:11.766Z,997.62
2018-10-02T14:54:12.888Z,997.60
2018-10-02T14:55:12.014Z,997.61
2018-10-02T14:56:12.254Z,997.57
2018-10-02T14:57:12.422Z,997.61
2018-10-02T14:58:11.713Z,997.53
2018-10-02T14:59:12.320Z,997.56
2018-10-02T15:00:12.385Z,997.45
2018-10-02T15:01:11.732Z,997.53
2018-10-02T15:02:20.418Z,997.50
2018-10-02T15:03:11.675Z,997.47
2018-10-02T15:04:11.659Z,997.49
2018-10-02T15:05:11.743Z,997.47
2018-10-02T15:06:11.692Z,997.42
2018-10-02T15:07:12.483Z,997.47
2018-10-02T15:08:11.614Z,997.39
2018-10-02T15:09:11.593Z,997.44
2018-10-02T15:10:11.585Z,997.41
2018-10-02T15:11:11.573Z,997.42
2018-10-02T15:12:11.724Z,997.38
2018-10-02T15:13:11.551Z,997.46
2018-10-02T15:14:11.554Z,997.39
2018-10-02T15:15:11.559Z,997.47
2018-10-02T15:16:11.516Z,997.45
2018-10-02T15:17:11.520Z,997.43
2018-10-02T15:18:11.562Z,997.48
2018-10-02T15:19:11.484Z,997.42
2018-10-02T15:20:11.473Z,997.54
2018-10-02T15:21:11.464Z,997.45
2018-10-02T15:22:11.466Z,997.42
2018-10-02T15:23:11.454Z,997.51
2018-10-02T15:24:11.506Z,997.41
2018-10-02T15:25:11.420Z,997.44
2018-10-02T15:26:11.410Z,997.40
2018-10-02T15:27:11.415Z,997.44
2018-10-02T15:28:11.387Z,997.35
2018-10-02T15:29:11.415Z,997.36
2018-10-02T15:30:11.388Z,997.34
2018-10-02T15:31:11.397Z,997.41
2018-10-02T15:32:11.358Z,997.41
2018-10-02T15:33:11.332Z,997.40
2018-10-02T15:34:11.323Z,997.40
2018-10-02T15:35:11.316Z,997.41
2018-10-02T15:36:11.299Z,997.36
2018-10-02T15:37:11.351Z,997.31
2018-10-02T15:38:11.317Z,997.34
2018-10-02T15:39:11.276Z,997.36
2018-10-02T15:40:11.269Z,997.34
2018-10-02T15:41:11.248Z,997.32
2018-10-02T15:42:11.249Z,997.31
2018-10-02T15:43:11.224Z,997.33
2018-10-02T15:44:11.233Z,997.30
2018-10-02T15:45:11.209Z,997.31
2018-10-02T15:46:11.207Z,997.35
2018-10-02T15:47:11.207Z,997.33
2018-10-02T15:48:11.171Z,997.36
2018-10-02T15:49:11.178Z,997.39
2018-10-02T15:50:11.191Z,997.38
2018-10-02T15:51:11.394Z,997.46
2018-10-02T15:52:11.158Z,997.50
2018-10-02T15:53:11.224Z,997.41
2018-10-02T15:54:11.104Z,997.43
2018-10-02T15:55:11.093Z,997.41
2018-10-02T15:56:11.084Z,997.41
2018-10-02T15:57:11.075Z,997.39
2018-10-02T15:58:11.135Z,997.45
2018-10-02T15:59:11.050Z,997.44
2018-10-02T16:00:11.041Z,997.48
2018-10-02T16:01:11.033Z,997.49
2018-10-02T16:02:11.026Z,997.57
2018-10-02T16:03:11.022Z,997.55
2018-10-02T16:04:10.999Z,997.58
2018-10-02T16:05:10.987Z,997.49
2018-10-02T16:06:10.978Z,997.55
2018-10-02T16:07:10.977Z,997.61
2018-10-02T16:08:10.967Z,997.66
2018-10-02T16:09:10.943Z,997.64
2018-10-02T16:10:10.935Z,997.65
2018-10-02T16:11:10.936Z,997.66
2018-10-02T16:12:10.909Z,997.65
2018-10-02T16:13:10.925Z,997.62
2018-10-02T16:14:10.889Z,997.64
2018-10-02T16:15:10.878Z,997.65
2018-10-02T16:16:10.867Z,997.73
2018-10-02T16:17:10.855Z,997.72
2018-10-02T16:18:10.880Z,997.78
2018-10-02T16:19:10.851Z,997.81
2018-10-02T16:20:10.826Z,997.84
2018-10-02T16:21:10.816Z,997.80
2018-10-02T16:22:10.809Z,997.88
2018-10-02T16:23:10.812Z,997.82
2018-10-02T16:24:10.781Z,997.82
2018-10-02T16:25:10.892Z,997.89
2018-10-02T16:26:10.759Z,997.89
2018-10-02T16:27:10.747Z,997.95
2018-10-02T16:28:10.751Z,997.96
2018-10-02T16:29:10.725Z,998.00
2018-10-02T16:30:10.718Z,998.00
2018-10-02T16:31:10.719Z,997.99
2018-10-02T16:32:10.692Z,998.05
2018-10-02T16:33:10.695Z,998.00
2018-10-02T16:34:10.671Z,998.08
2018-10-02T16:35:10.662Z,998.02
2018-10-02T16:36:10.652Z,998.10
2018-10-02T16:37:10.651Z,998.09
2018-10-02T16:38:10.641Z,998.11
2018-10-02T16:39:10.619Z,998.13
2018-10-02T16:40:10.604Z,998.13
2018-10-02T16:41:10.594Z,998.19
2018-10-02T16:42:10.585Z,998.17
2018-10-02T16:43:10.612Z,998.17
2018-10-02T16:44:10.575Z,998.17
2018-10-02T16:45:10.553Z,998.14
2018-10-02T16:46:10.540Z,998.15
2018-10-02T16:47:10.567Z,998.20
2018-10-02T16:48:10.519Z,998.18
2018-10-02T16:49:10.521Z,998.23
2018-10-02T16:50:10.519Z,998.25
2018-10-02T16:51:10.508Z,998.16
2018-10-02T16:52:10.476Z,998.25
2018-10-02T16:53:10.466Z,998.19
2018-10-02T16:54:10.467Z,998.18
2018-10-02T16:55:10.444Z,998.21
2018-10-02T16:56:10.435Z,998.18
2018-10-02T16:57:10.487Z,998.22
2018-10-02T16:58:10.412Z,998.21
2018-10-02T16:59:10.425Z,998.18
2018-10-02T17:00:10.389Z,998.19
2018-10-02T17:01:10.435Z,998.14
2018-10-02T17:02:10.413Z,998.16
2018-10-02T17:03:10.404Z,998.13
2018-10-02T17:04:10.418Z,998.18
2018-10-02T17:05:10.340Z,998.21
2018-10-02T17:06:10.326Z,998.23
2018-10-02T17:07:10.331Z,998.27
2018-10-02T17:08:10.309Z,998.27
2018-10-02T17:09:10.306Z,998.27
2018-10-02T17:10:10.300Z,998.27
2018-10-02T17:11:10.273Z,998.30
2018-10-02T17:12:10.280Z,998.30
2018-10-02T17:13:10.250Z,998.36
2018-10-02T17:14:10.283Z,998.34
2018-10-02T17:15:10.242Z,998.34
2018-10-02T17:16:10.282Z,998.29
2018-10-02T17:17:10.224Z,998.24
2018-10-02T17:18:10.198Z,998.29
2018-10-02T17:19:10.470Z,998.29
2018-10-02T17:20:10.425Z,998.38
2018-10-02T17:21:10.166Z,998.27
2018-10-02T17:22:10.230Z,998.29
2018-10-02T17:23:10.144Z,998.27
2018-10-02T17:24:10.170Z,998.28
2018-10-02T17:25:10.124Z,998.29
2018-10-02T17:26:10.176Z,998.29
2018-10-02T17:27:10.104Z,998.27
2018-10-02T17:28:10.162Z,998.31
2018-10-02T17:29:10.098Z,998.33
2018-10-02T17:30:10.481Z,998.33
2018-10-02T17:31:10.057Z,998.32
2018-10-02T17:32:10.047Z,998.34
2018-10-02T17:33:10.054Z,998.42
2018-10-02T17:34:10.114Z,998.43
2018-10-02T17:35:10.017Z,998.48
2018-10-02T17:36:10.005Z,998.52
2018-10-02T17:37:09.995Z,998.49
2018-10-02T17:38:10.016Z,998.48
2018-10-02T17:39:09.986Z,998.43
2018-10-02T17:40:09.988Z,998.42
2018-10-02T17:41:09.953Z,998.41
2018-10-02T17:42:09.941Z,998.40
2018-10-02T17:43:09.931Z,998.38
2018-10-02T17:44:09.939Z,998.39
2018-10-02T17:45:09.927Z,998.39
2018-10-02T17:46:10.121Z,998.46
2018-10-02T17:47:09.892Z,998.49
2018-10-02T17:48:09.879Z,998.49
2018-10-02T17:49:09.954Z,998.45
2018-10-02T17:50:09.876Z,998.47
2018-10-02T17:51:09.875Z,998.47
2018-10-02T17:52:09.838Z,998.53
2018-10-02T17:53:09.826Z,998.53
2018-10-02T17:54:09.815Z,998.53
2018-10-02T17:55:09.821Z,998.59
2018-10-02T17:56:09.792Z,998.60
2018-10-02T17:57:09.795Z,998.56
2018-10-02T17:58:09.773Z,998.56
2018-10-02T17:59:09.762Z,998.57
2018-10-02T18:00:09.764Z,998.58
2018-10-02T18:01:09.739Z,998.57
2018-10-02T18:02:09.734Z,998.63
2018-10-02T18:03:09.736Z,998.57
2018-10-02T18:04:09.709Z,998.56
2018-10-02T18:05:09.715Z,998.54
2018-10-02T18:06:09.686Z,998.56
2018-10-02T18:07:09.677Z,998.56
2018-10-02T18:08:09.664Z,998.55
2018-10-02T18:09:09.666Z,998.59
2018-10-02T18:10:09.674Z,998.61
2018-10-02T18:11:09.633Z,998.58
2018-10-02T18:12:09.623Z,998.60
2018-10-02T18:13:09.613Z,998.59
2018-10-02T18:14:09.601Z,998.61
2018-10-02T18:15:09.609Z,998.63
2018-10-02T18:16:09.599Z,998.58
2018-10-02T18:17:09.571Z,998.63
2018-10-02T18:18:09.559Z,998.59
2018-10-02T18:19:09.551Z,998.61
2018-10-02T18:20:09.553Z,998.66
2018-10-02T18:21:09.528Z,998.62
2018-10-02T18:22:09.536Z,998.60
2018-10-02T18:23:09.508Z,998.57
2018-10-02T18:24:09.495Z,998.66
2018-10-02T18:25:09.497Z,998.64
2018-10-02T18:26:09.477Z,998.65
2018-10-02T18:27:09.462Z,998.71
2018-10-02T18:28:09.467Z,998.73
2018-10-02T18:29:09.441Z,998.67
2018-10-02T18:30:09.452Z,998.74
2018-10-02T18:31:09.420Z,998.76
2018-10-02T18:32:09.408Z,998.76
2018-10-02T18:33:09.400Z,998.79
2018-10-02T18:34:09.399Z,998.78
2018-10-02T18:35:09.410Z,998.78
2018-10-02T18:36:09.366Z,998.79
2018-10-02T18:37:09.355Z,998.76
2018-10-02T18:38:09.346Z,998.76
2018-10-02T18:39:09.335Z,998.68
2018-10-02T18:40:09.403Z,998.75
2018-10-02T18:41:09.337Z,998.70
2018-10-02T18:42:09.328Z,998.70
2018-10-02T18:43:09.432Z,998.67
2018-10-02T18:44:09.281Z,998.69
2018-10-02T18:45:09.269Z,998.63
2018-10-02T18:46:09.275Z,998.67
2018-10-02T18:47:09.263Z,998.68
2018-10-02T18:48:09.237Z,998.69
2018-10-02T18:49:09.257Z,998.73
2018-10-02T18:50:09.215Z,998.71
2018-10-02T18:51:09.224Z,998.70
2018-10-02T18:52:09.195Z,998.74
2018-10-02T18:53:09.197Z,998.70
2018-10-02T18:54:09.176Z,998.69
2018-10-02T18:55:09.161Z,998.67
2018-10-02T18:56:09.181Z,998.71
2018-10-02T18:57:09.139Z,998.74
2018-10-02T18:58:09.131Z,998.77
2018-10-02T18:59:09.143Z,998.79
2018-10-02T19:00:09.109Z,998.79
2018-10-02T19:01:09.114Z,998.84
2018-10-02T19:02:09.142Z,998.77
2018-10-02T19:03:09.076Z,998.78
2018-10-02T19:04:09.065Z,998.86
2018-10-02T19:05:09.073Z,998.76
2018-10-02T19:06:09.073Z,998.85
2018-10-02T19:07:09.051Z,998.85
2018-10-02T19:08:09.022Z,998.89
2018-10-02T19:09:09.013Z,998.89
2018-10-02T19:10:09.056Z,998.88
2018-10-02T19:11:09.008Z,998.89
2018-10-02T19:12:08.983Z,998.90
2018-10-02T19:13:08.994Z,998.93
2018-10-02T19:14:08.959Z,998.91
2018-10-02T19:15:08.948Z,998.91
2018-10-02T19:16:08.951Z,998.95
2018-10-02T19:17:08.928Z,998.91
2018-10-02T19:18:08.916Z,999.00
2018-10-02T19:19:08.924Z,998.98
2018-10-02T19:20:16.952Z,998.95
2018-10-02T19:21:08.897Z,998.93
2018-10-02T19:22:08.872Z,998.97
2018-10-02T19:23:08.860Z,998.99
2018-10-02T19:24:08.863Z,998.95
2018-10-02T19:25:08.841Z,998.97
2018-10-02T19:26:08.844Z,998.96
2018-10-02T19:27:08.842Z,998.96
2018-10-02T19:28:08.811Z,999.03
2018-10-02T19:29:08.797Z,999.00
2018-10-02T19:30:08.791Z,999.06
2018-10-02T19:31:08.791Z,999.02
2018-10-02T19:32:08.781Z,999.06
2018-10-02T19:33:08.757Z,999.09
2018-10-02T19:34:08.743Z,999.10
2018-10-02T19:35:08.733Z,999.17
2018-10-02T19:36:08.770Z,999.08
2018-10-02T19:37:08.713Z,999.11
2018-10-02T19:38:08.712Z,999.11
2018-10-02T19:39:08.708Z,999.13
2018-10-02T19:40:08.680Z,999.09
2018-10-02T19:41:08.668Z,999.13
2018-10-02T19:42:08.672Z,999.12
2018-10-02T19:43:08.652Z,999.15
2018-10-02T19:44:08.636Z,999.24
2018-10-02T19:45:08.651Z,999.19
2018-10-02T19:46:08.618Z,999.19
2018-10-02T19:47:08.619Z,999.18
2018-10-02T19:48:08.593Z,999.25
2018-10-02T19:49:08.583Z,999.28
2018-10-02T19:50:08.571Z,999.24
2018-10-02T19:51:08.575Z,999.21
2018-10-02T19:52:08.564Z,999.32
2018-10-02T19:53:08.595Z,999.27
2018-10-02T19:54:08.537Z,999.21
2018-10-02T19:55:08.546Z,999.23
2018-10-02T19:56:08.534Z,999.28
2018-10-02T19:57:08.625Z,999.32
2018-10-02T19:58:08.502Z,999.30
2018-10-02T19:59:08.501Z,999.31
2018-10-02T20:00:08.466Z,999.36
2018-10-02T20:01:08.491Z,999.34
2018-10-02T20:02:08.481Z,999.33
2018-10-02T20:03:08.455Z,999.38
2018-10-02T20:04:08.465Z,999.35
2018-10-02T20:05:08.410Z,999.33
2018-10-02T20:06:08.400Z,999.30
2018-10-02T20:07:08.425Z,999.36
2018-10-02T20:08:08.377Z,999.36
2018-10-02T20:09:08.377Z,999.35
2018-10-02T20:10:08.355Z,999.37
2018-10-02T20:11:08.345Z,999.40
2018-10-02T20:12:08.349Z,999.32
2018-10-02T20:13:08.356Z,999.31
2018-10-02T20:14:08.314Z,999.36
2018-10-02T20:15:08.321Z,999.35
2018-10-02T20:16:08.296Z,999.38
2018-10-02T20:17:08.294Z,999.42
2018-10-02T20:18:08.269Z,999.43
2018-10-02T20:19:08.261Z,999.42
2018-10-02T20:20:08.250Z,999.45
2018-10-02T20:21:08.256Z,999.46
2018-10-02T20:22:08.240Z,999.46
2018-10-02T20:23:08.216Z,999.48
2018-10-02T20:24:08.271Z,999.47
2018-10-02T20:25:08.195Z,999.48
2018-10-02T20:26:08.209Z,999.47
2018-10-02T20:27:08.295Z,999.43
2018-10-02T20:28:08.209Z,999.48
2018-10-02T20:29:08.196Z,999.50
2018-10-02T20:30:08.170Z,999.44
2018-10-02T20:31:08.131Z,999.53
2018-10-02T20:32:08.363Z,999.53
2018-10-02T20:33:16.218Z,999.52
2018-10-02T20:34:08.097Z,999.50
2018-10-02T20:35:08.122Z,999.50
2018-10-02T20:36:08.105Z,999.48
2018-10-02T20:37:08.352Z,999.49
2018-10-02T20:38:08.070Z,999.55
2018-10-02T20:39:08.086Z,999.52
2018-10-02T20:40:08.048Z,999.51
2018-10-02T20:41:08.117Z,999.50
2018-10-02T20:42:08.044Z,999.48
2018-10-02T20:43:08.076Z,999.49
2018-10-02T20:44:07.993Z,999.48
2018-10-02T20:45:08.006Z,999.43
2018-10-02T20:46:08.013Z,999.40
2018-10-02T20:47:07.957Z,999.35
2018-10-02T20:48:08.001Z,999.34
2018-10-02T20:49:07.975Z,999.26
2018-10-02T20:50:07.926Z,999.25
2018-10-02T20:51:07.914Z,999.20
2018-10-02T20:52:07.906Z,999.19
2018-10-02T20:53:07.945Z,999.19
2018-10-02T20:54:07.884Z,999.20
2018-10-02T20:55:07.871Z,999.25
2018-10-02T20:56:07.861Z,999.22
2018-10-02T20:57:07.849Z,999.23
2018-10-02T20:58:07.853Z,999.21
2018-10-02T20:59:07.847Z,999.23
2018-10-02T21:00:07.818Z,999.21
2018-10-02T21:01:07.808Z,999.23
2018-10-02T21:02:07.796Z,999.18
2018-10-02T21:03:07.798Z,999.14
2018-10-02T21:04:07.790Z,999.24
2018-10-02T21:05:07.788Z,999.29
2018-10-02T21:06:07.753Z,999.23
2018-10-02T21:07:07.748Z,999.21
2018-10-02T21:08:07.747Z,999.23
2018-10-02T21:09:07.721Z,999.22
2018-10-02T21:10:07.713Z,999.18
2018-10-02T21:11:07.720Z,999.21
2018-10-02T21:12:07.697Z,999.20
2018-10-02T21:13:07.702Z,999.19
2018-10-02T21:14:07.685Z,999.18
2018-10-02T21:15:07.672Z,999.14
2018-10-02T21:16:07.646Z,999.16
2018-10-02T21:17:07.635Z,999.12
2018-10-02T21:18:07.649Z,999.16
2018-10-02T21:19:07.648Z,999.18
2018-10-02T21:20:07.650Z,999.21
2018-10-02T21:21:07.593Z,999.17
2018-10-02T21:22:07.583Z,999.17
2018-10-02T21:23:07.572Z,999.18
2018-10-02T21:24:07.575Z,999.18
2018-10-02T21:25:07.729Z,999.18
2018-10-02T21:26:07.543Z,999.17
2018-10-02T21:27:07.527Z,999.18
2018-10-02T21:28:07.517Z,999.15
2018-10-02T21:29:07.521Z,999.16
2018-10-02T21:30:07.497Z,999.14
2018-10-02T21:31:07.505Z,999.21
2018-10-02T21:32:07.513Z,999.24
2018-10-02T21:33:07.533Z,999.23
2018-10-02T21:34:07.480Z,999.20
2018-10-02T21:35:07.507Z,999.20
2018-10-02T21:36:07.431Z,999.25
2018-10-02T21:37:07.455Z,999.17
2018-10-02T21:38:07.411Z,999.21
2018-10-02T21:39:07.420Z,999.16
2018-10-02T21:40:08.576Z,999.14
2018-10-02T21:41:15.426Z,999.14
2018-10-02T21:42:07.368Z,999.18
2018-10-02T21:43:07.356Z,999.20
2018-10-02T21:44:07.361Z,999.19
2018-10-02T21:45:07.351Z,999.16
2018-10-02T21:46:07.349Z,999.18
2018-10-02T21:47:07.314Z,999.13
2018-10-02T21:48:07.302Z,999.06
2018-10-02T21:49:07.327Z,999.12
2018-10-02T21:50:07.282Z,999.10
2018-10-02T21:51:07.271Z,999.10
2018-10-02T21:52:07.260Z,999.15
2018-10-02T21:53:07.250Z,999.07
2018-10-02T21:54:07.278Z,999.08
2018-10-02T21:55:07.241Z,999.12
2018-10-02T21:56:07.219Z,999.06
2018-10-02T21:57:07.340Z,999.02
2018-10-02T21:58:07.195Z,999.02
2018-10-02T21:59:07.200Z,999.02
2018-10-02T22:00:07.188Z,999.02
2018-10-02T22:01:07.167Z,999.01
2018-10-02T22:02:07.154Z,999.04
2018-10-02T22:03:07.146Z,998.97
2018-10-02T22:04:07.155Z,998.99
2018-10-02T22:05:07.121Z,998.97
2018-10-02T22:06:07.121Z,998.98
2018-10-02T22:07:07.100Z,998.96
2018-10-02T22:08:07.115Z,999.02
2018-10-02T22:09:07.092Z,998.97
2018-10-02T22:10:07.068Z,998.98
2018-10-02T22:11:07.057Z,999.01
2018-10-02T22:12:07.074Z,999.08
2018-10-02T22:13:07.037Z,999.04
2018-10-02T22:14:07.042Z,999.14
2018-10-02T22:15:07.014Z,999.12
2018-10-02T22:16:07.004Z,999.11
2018-10-02T22:17:06.993Z,999.14
2018-10-02T22:18:06.991Z,999.15
2018-10-02T22:19:07.000Z,999.10
2018-10-02T22:20:06.976Z,999.13
2018-10-02T22:21:06.951Z,999.04
2018-10-02T22:22:06.951Z,999.05
2018-10-02T22:23:06.933Z,999.05
2018-10-02T22:24:07.003Z,999.15
2018-10-02T22:25:06.908Z,999.09
2018-10-02T22:26:06.909Z,999.08
2018-10-02T22:27:06.887Z,999.09
2018-10-02T22:28:06.880Z,999.10
2018-10-02T22:29:06.890Z,999.02
2018-10-02T22:30:06.854Z,999.06
2018-10-02T22:31:06.842Z,999.08
2018-10-02T22:32:06.856Z,999.05
2018-10-02T22:33:06.882Z,999.07
2018-10-02T22:34:06.811Z,999.06
2018-10-02T22:35:06.815Z,999.06
2018-10-02T22:36:06.789Z,999.02
2018-10-02T22:37:06.780Z,999.07
2018-10-02T22:38:06.793Z,999.04
2018-10-02T22:39:06.758Z,999.00
2018-10-02T22:40:06.782Z,999.02
2018-10-02T22:41:06.738Z,999.02
2018-10-02T22:42:06.728Z,999.03
2018-10-02T22:43:06.716Z,999.06
2018-10-02T22:44:06.721Z,999.01
2018-10-02T22:45:06.720Z,999.04
2018-10-02T22:46:06.694Z,999.06
2018-10-02T22:47:06.672Z,999.04
2018-10-02T22:48:06.665Z,999.01
2018-10-02T22:49:06.651Z,999.05
2018-10-02T22:50:06.653Z,999.01
2018-10-02T22:51:06.628Z,998.99
2018-10-02T22:52:06.632Z,998.97
2018-10-02T22:53:06.634Z,998.99
2018-10-02T22:54:06.595Z,998.98
2018-10-02T22:55:06.599Z,998.97
2018-10-02T22:56:06.579Z,998.96
2018-10-02T22:57:06.569Z,998.97
2018-10-02T22:58:06.555Z,999.03
2018-10-02T22:59:06.614Z,998.99
2018-10-02T23:00:06.564Z,999.03
2018-10-02T23:01:06.525Z,999.10
2018-10-02T23:02:06.511Z,999.04
2018-10-02T23:03:06.501Z,999.01
2018-10-02T23:04:06.491Z,999.03
2018-10-02T23:05:06.493Z,999.03
2018-10-02T23:06:06.483Z,999.04
2018-10-02T23:07:06.459Z,999.03
2018-10-02T23:08:06.446Z,999.03
2018-10-02T23:09:06.444Z,999.01
2018-10-02T23:10:06.443Z,999.03
2018-10-02T23:11:06.416Z,999.06
2018-10-02T23:12:06.417Z,999.01
2018-10-02T23:13:06.395Z,999.05
2018-10-02T23:14:06.383Z,999.09
2018-10-02T23:15:06.396Z,999.02
2018-10-02T23:16:06.360Z,998.99
2018-10-02T23:17:06.365Z,999.01
2018-10-02T23:18:06.338Z,999.04
2018-10-02T23:19:06.328Z,998.97
2018-10-02T23:20:06.317Z,998.99
2018-10-02T23:21:06.321Z,999.03
2018-10-02T23:22:06.296Z,999.05
2018-10-02T23:23:06.301Z,999.02
2018-10-02T23:24:06.277Z,999.00
2018-10-02T23:25:06.265Z,999.02
2018-10-02T23:26:06.267Z,998.96
2018-10-02T23:27:06.246Z,998.95
2018-10-02T23:28:06.248Z,998.98
2018-10-02T23:29:06.234Z,998.97
2018-10-02T23:30:06.211Z,998.97
2018-10-02T23:31:06.214Z,998.99
2018-10-02T23:32:06.189Z,998.96
2018-10-02T23:33:06.179Z,998.93
2018-10-02T23:34:06.169Z,998.95
2018-10-02T23:35:06.179Z,999.00
2018-10-02T23:36:06.159Z,998.97
2018-10-02T23:37:06.219Z,998.87
2018-10-02T23:38:06.128Z,998.91
2018-10-02T23:39:06.113Z,999.00
2018-10-02T23:40:06.104Z,998.99
2018-10-02T23:41:06.135Z,999.04
2018-10-02T23:42:06.082Z,998.99
2018-10-02T23:43:06.072Z,999.04
2018-10-02T23:44:06.067Z,999.03
2018-10-02T23:45:06.051Z,999.04
2018-10-02T23:46:06.052Z,999.01
2018-10-02T23:47:06.047Z,998.94
2018-10-02T23:48:06.037Z,998.95
2018-10-02T23:49:06.007Z,999.02
2018-10-02T23:50:05.996Z,999.06
2018-10-02T23:51:06.001Z,999.08
2018-10-02T23:52:05.975Z,999.02
2018-10-02T23:53:05.966Z,999.13
2018-10-02T23:54:05.965Z,999.08
2018-10-02T23:55:05.966Z,999.06
2018-10-02T23:56:05.946Z,999.03
2018-10-02T23:57:05.923Z,999.06
2018-10-02T23:58:05.910Z,999.01
2018-10-02T23:59:05.900Z,999.02
